sensor_id;sensor_type;location;lat;lon;timestamp;temperature;humidity
4701;DHT22;8724;51.272;6.554;2022-09-02T00:00:57;22.50;92.70
4701;DHT22;8724;51.272;6.554;2022-09-02T00:03:28;22.50;92.70
4701;DHT22;8724;51.272;6.554;2022-09-02T00:05:57;22.40;92.70
4701;DHT22;8724;51.272;6.554;2022-09-02T00:08:25;22.40;92.80
4701;DHT22;8724;51.272;6.554;2022-09-02T00:10:53;22.40;92.80
4701;DHT22;8724;51.272;6.554;2022-09-02T00:13:22;22.40;92.80
4701;DHT22;8724;51.272;6.554;2022-09-02T00:15:50;22.40;92.80
4701;DHT22;8724;51.272;6.554;2022-09-02T00:18:19;22.30;92.80
4701;DHT22;8724;51.272;6.554;2022-09-02T00:20:48;22.30;92.80
4701;DHT22;8724;51.272;6.554;2022-09-02T00:23:16;22.30;92.90
4701;DHT22;8724;51.272;6.554;2022-09-02T00:25:45;22.30;92.90
4701;DHT22;8724;51.272;6.554;2022-09-02T00:28:15;22.20;92.80
4701;DHT22;8724;51.272;6.554;2022-09-02T00:30:46;22.20;92.90
4701;DHT22;8724;51.272;6.554;2022-09-02T00:33:15;22.20;92.90
4701;DHT22;8724;51.272;6.554;2022-09-02T00:35:45;22.20;93.00
4701;DHT22;8724;51.272;6.554;2022-09-02T00:38:13;22.20;93.30
4701;DHT22;8724;51.272;6.554;2022-09-02T00:40:43;22.20;93.40
4701;DHT22;8724;51.272;6.554;2022-09-02T00:43:22;22.10;93.00
4701;DHT22;8724;51.272;6.554;2022-09-02T00:45:51;22.10;93.10
4701;DHT22;8724;51.272;6.554;2022-09-02T00:48:20;22.10;93.10
4701;DHT22;8724;51.272;6.554;2022-09-02T00:50:50;22.10;93.10
4701;DHT22;8724;51.272;6.554;2022-09-02T00:53:18;22.10;93.10
4701;DHT22;8724;51.272;6.554;2022-09-02T00:55:48;22.10;93.20
4701;DHT22;8724;51.272;6.554;2022-09-02T00:58:20;22.00;93.10
4701;DHT22;8724;51.272;6.554;2022-09-02T01:00:50;22.00;93.20
4701;DHT22;8724;51.272;6.554;2022-09-02T01:03:26;22.00;93.20
4701;DHT22;8724;51.272;6.554;2022-09-02T01:05:57;22.00;93.10
4701;DHT22;8724;51.272;6.554;2022-09-02T01:08:33;22.00;93.20
4701;DHT22;8724;51.272;6.554;2022-09-02T01:11:03;22.00;93.30
4701;DHT22;8724;51.272;6.554;2022-09-02T01:13:36;22.00;93.30
4701;DHT22;8724;51.272;6.554;2022-09-02T01:16:17;22.00;93.30
4701;DHT22;8724;51.272;6.554;2022-09-02T01:18:49;22.00;93.30
4701;DHT22;8724;51.272;6.554;2022-09-02T01:21:19;21.90;93.30
4701;DHT22;8724;51.272;6.554;2022-09-02T01:23:50;21.90;93.40
4701;DHT22;8724;51.272;6.554;2022-09-02T01:26:19;21.90;93.30
4701;DHT22;8724;51.272;6.554;2022-09-02T01:28:48;21.90;93.40
4701;DHT22;8724;51.272;6.554;2022-09-02T01:31:17;21.90;93.50
4701;DHT22;8724;51.272;6.554;2022-09-02T01:33:45;21.90;93.60
4701;DHT22;8724;51.272;6.554;2022-09-02T01:36:13;21.90;93.50
4701;DHT22;8724;51.272;6.554;2022-09-02T01:38:41;21.90;93.50
4701;DHT22;8724;51.272;6.554;2022-09-02T01:41:11;21.80;93.50
4701;DHT22;8724;51.272;6.554;2022-09-02T01:43:39;21.90;93.60
4701;DHT22;8724;51.272;6.554;2022-09-02T01:46:07;21.80;93.70
4701;DHT22;8724;51.272;6.554;2022-09-02T01:48:36;21.80;93.70
4701;DHT22;8724;51.272;6.554;2022-09-02T01:51:04;21.90;93.80
4701;DHT22;8724;51.272;6.554;2022-09-02T01:53:33;21.80;93.70
4701;DHT22;8724;51.272;6.554;2022-09-02T01:56:05;21.80;93.70
4701;DHT22;8724;51.272;6.554;2022-09-02T01:58:35;21.80;93.80
4701;DHT22;8724;51.272;6.554;2022-09-02T02:01:04;21.80;93.90
4701;DHT22;8724;51.272;6.554;2022-09-02T02:03:34;21.80;93.90
4701;DHT22;8724;51.272;6.554;2022-09-02T02:06:08;21.80;93.90
4701;DHT22;8724;51.272;6.554;2022-09-02T02:08:38;21.80;94.00
4701;DHT22;8724;51.272;6.554;2022-09-02T02:11:07;21.80;94.00
4701;DHT22;8724;51.272;6.554;2022-09-02T02:13:37;21.80;94.00
4701;DHT22;8724;51.272;6.554;2022-09-02T02:16:06;21.80;94.10
4701;DHT22;8724;51.272;6.554;2022-09-02T02:18:34;21.80;94.10
4701;DHT22;8724;51.272;6.554;2022-09-02T02:21:03;21.80;94.10
4701;DHT22;8724;51.272;6.554;2022-09-02T02:23:32;21.80;94.10
4701;DHT22;8724;51.272;6.554;2022-09-02T02:26:00;21.80;94.10
4701;DHT22;8724;51.272;6.554;2022-09-02T02:28:28;21.80;94.20
4701;DHT22;8724;51.272;6.554;2022-09-02T02:30:58;21.80;94.20
4701;DHT22;8724;51.272;6.554;2022-09-02T02:33:29;21.80;94.20
4701;DHT22;8724;51.272;6.554;2022-09-02T02:36:04;21.80;94.30
4701;DHT22;8724;51.272;6.554;2022-09-02T02:38:34;21.80;94.20
4701;DHT22;8724;51.272;6.554;2022-09-02T02:41:03;21.80;94.20
4701;DHT22;8724;51.272;6.554;2022-09-02T02:43:33;21.80;94.30
4701;DHT22;8724;51.272;6.554;2022-09-02T02:46:05;21.80;94.30
4701;DHT22;8724;51.272;6.554;2022-09-02T02:48:35;21.80;94.40
4701;DHT22;8724;51.272;6.554;2022-09-02T02:51:05;21.80;94.40
4701;DHT22;8724;51.272;6.554;2022-09-02T02:53:34;21.80;94.50
4701;DHT22;8724;51.272;6.554;2022-09-02T02:56:03;21.80;94.50
4701;DHT22;8724;51.272;6.554;2022-09-02T02:58:32;21.80;94.50
4701;DHT22;8724;51.272;6.554;2022-09-02T03:01:01;21.80;94.50
4701;DHT22;8724;51.272;6.554;2022-09-02T03:03:31;21.80;94.40
4701;DHT22;8724;51.272;6.554;2022-09-02T03:06:01;21.80;94.40
4701;DHT22;8724;51.272;6.554;2022-09-02T03:08:29;21.80;94.40
4701;DHT22;8724;51.272;6.554;2022-09-02T03:10:59;21.80;94.30
4701;DHT22;8724;51.272;6.554;2022-09-02T03:13:31;21.80;94.20
4701;DHT22;8724;51.272;6.554;2022-09-02T03:16:02;21.80;94.10
4701;DHT22;8724;51.272;6.554;2022-09-02T03:18:34;21.80;94.10
4701;DHT22;8724;51.272;6.554;2022-09-02T03:21:06;21.80;94.00
4701;DHT22;8724;51.272;6.554;2022-09-02T03:23:35;21.80;94.00
4701;DHT22;8724;51.272;6.554;2022-09-02T03:26:08;21.80;94.10
4701;DHT22;8724;51.272;6.554;2022-09-02T03:28:39;21.80;94.00
4701;DHT22;8724;51.272;6.554;2022-09-02T03:31:12;21.80;94.00
4701;DHT22;8724;51.272;6.554;2022-09-02T03:33:44;21.80;94.10
4701;DHT22;8724;51.272;6.554;2022-09-02T03:36:20;21.80;94.10
4701;DHT22;8724;51.272;6.554;2022-09-02T03:38:49;21.80;94.10
4701;DHT22;8724;51.272;6.554;2022-09-02T03:41:18;21.80;94.10
4701;DHT22;8724;51.272;6.554;2022-09-02T03:43:47;21.90;94.30
4701;DHT22;8724;51.272;6.554;2022-09-02T03:46:17;21.90;94.20
4701;DHT22;8724;51.272;6.554;2022-09-02T03:48:47;21.80;94.10
4701;DHT22;8724;51.272;6.554;2022-09-02T03:51:19;21.80;94.20
4701;DHT22;8724;51.272;6.554;2022-09-02T03:53:49;22.10;94.30
4701;DHT22;8724;51.272;6.554;2022-09-02T03:56:18;21.80;94.20
4701;DHT22;8724;51.272;6.554;2022-09-02T03:58:48;21.80;94.20
4701;DHT22;8724;51.272;6.554;2022-09-02T04:01:22;21.80;94.20
4701;DHT22;8724;51.272;6.554;2022-09-02T04:03:56;21.80;94.30
4701;DHT22;8724;51.272;6.554;2022-09-02T04:06:24;21.80;94.20
4701;DHT22;8724;51.272;6.554;2022-09-02T04:09:00;21.80;94.20
4701;DHT22;8724;51.272;6.554;2022-09-02T04:11:29;21.70;94.10
4701;DHT22;8724;51.272;6.554;2022-09-02T04:13:58;21.70;94.00
4701;DHT22;8724;51.272;6.554;2022-09-02T04:23:37;21.70;94.00
4701;DHT22;8724;51.272;6.554;2022-09-02T04:26:08;21.70;94.00
4701;DHT22;8724;51.272;6.554;2022-09-02T04:28:38;21.60;94.20
4701;DHT22;8724;51.272;6.554;2022-09-02T04:31:09;21.60;94.10
4701;DHT22;8724;51.272;6.554;2022-09-02T04:33:40;21.60;94.10
4701;DHT22;8724;51.272;6.554;2022-09-02T04:36:14;21.60;94.20
4701;DHT22;8724;51.272;6.554;2022-09-02T04:38:45;21.60;94.20
4701;DHT22;8724;51.272;6.554;2022-09-02T04:41:18;21.60;94.30
4701;DHT22;8724;51.272;6.554;2022-09-02T04:43:50;21.50;94.20
4701;DHT22;8724;51.272;6.554;2022-09-02T04:46:18;21.60;94.30
4701;DHT22;8724;51.272;6.554;2022-09-02T04:49:03;21.50;94.30
4701;DHT22;8724;51.272;6.554;2022-09-02T04:51:32;21.50;94.30
4701;DHT22;8724;51.272;6.554;2022-09-02T04:54:06;21.50;94.40
4701;DHT22;8724;51.272;6.554;2022-09-02T04:56:37;21.50;94.40
4701;DHT22;8724;51.272;6.554;2022-09-02T04:59:07;21.50;94.40
4701;DHT22;8724;51.272;6.554;2022-09-02T05:01:40;21.50;94.50
4701;DHT22;8724;51.272;6.554;2022-09-02T05:04:15;21.50;94.50
4701;DHT22;8724;51.272;6.554;2022-09-02T05:06:48;21.50;94.50
4701;DHT22;8724;51.272;6.554;2022-09-02T05:09:21;21.50;94.50
4701;DHT22;8724;51.272;6.554;2022-09-02T05:11:54;21.50;94.50
4701;DHT22;8724;51.272;6.554;2022-09-02T05:14:30;21.40;94.50
4701;DHT22;8724;51.272;6.554;2022-09-02T05:17:03;21.40;94.50
4701;DHT22;8724;51.272;6.554;2022-09-02T05:19:38;21.40;94.60
4701;DHT22;8724;51.272;6.554;2022-09-02T05:22:07;21.40;94.70
4701;DHT22;8724;51.272;6.554;2022-09-02T05:24:42;21.40;94.70
4701;DHT22;8724;51.272;6.554;2022-09-02T05:27:13;21.40;94.80
4701;DHT22;8724;51.272;6.554;2022-09-02T05:29:44;21.40;95.00
4701;DHT22;8724;51.272;6.554;2022-09-02T05:32:16;21.40;94.90
4701;DHT22;8724;51.272;6.554;2022-09-02T05:34:47;21.40;94.80
4701;DHT22;8724;51.272;6.554;2022-09-02T05:37:16;21.50;94.90
4701;DHT22;8724;51.272;6.554;2022-09-02T05:39:47;21.50;94.90
4701;DHT22;8724;51.272;6.554;2022-09-02T05:42:17;21.50;94.90
4701;DHT22;8724;51.272;6.554;2022-09-02T05:44:49;21.50;94.90
4701;DHT22;8724;51.272;6.554;2022-09-02T05:47:22;21.50;94.90
4701;DHT22;8724;51.272;6.554;2022-09-02T05:49:52;21.50;94.90
4701;DHT22;8724;51.272;6.554;2022-09-02T05:52:22;21.50;94.90
4701;DHT22;8724;51.272;6.554;2022-09-02T05:54:55;21.50;94.90
4701;DHT22;8724;51.272;6.554;2022-09-02T05:57:24;21.50;95.00
4701;DHT22;8724;51.272;6.554;2022-09-02T05:59:57;21.50;95.10
4701;DHT22;8724;51.272;6.554;2022-09-02T06:02:39;21.50;95.20
4701;DHT22;8724;51.272;6.554;2022-09-02T06:05:12;21.50;95.30
4701;DHT22;8724;51.272;6.554;2022-09-02T06:07:47;21.50;95.40
4701;DHT22;8724;51.272;6.554;2022-09-02T06:10:20;21.50;95.50
4701;DHT22;8724;51.272;6.554;2022-09-02T06:12:49;21.50;95.50
4701;DHT22;8724;51.272;6.554;2022-09-02T06:15:21;21.50;95.50
4701;DHT22;8724;51.272;6.554;2022-09-02T06:17:49;21.50;95.50
4701;DHT22;8724;51.272;6.554;2022-09-02T06:20:18;21.50;95.50
4701;DHT22;8724;51.272;6.554;2022-09-02T06:22:47;21.50;95.40
4701;DHT22;8724;51.272;6.554;2022-09-02T06:25:21;21.50;95.30
4701;DHT22;8724;51.272;6.554;2022-09-02T06:27:51;21.50;95.20
4701;DHT22;8724;51.272;6.554;2022-09-02T06:30:19;21.60;95.10
4701;DHT22;8724;51.272;6.554;2022-09-02T06:32:48;21.60;95.00
4701;DHT22;8724;51.272;6.554;2022-09-02T06:35:18;21.60;94.90
4701;DHT22;8724;51.272;6.554;2022-09-02T06:37:47;21.60;94.90
4701;DHT22;8724;51.272;6.554;2022-09-02T06:40:16;21.60;94.90
4701;DHT22;8724;51.272;6.554;2022-09-02T06:42:47;21.60;94.80
4701;DHT22;8724;51.272;6.554;2022-09-02T06:45:38;21.60;94.80
4701;DHT22;8724;51.272;6.554;2022-09-02T06:48:08;21.70;94.90
4701;DHT22;8724;51.272;6.554;2022-09-02T06:50:39;21.70;94.80
4701;DHT22;8724;51.272;6.554;2022-09-02T06:53:08;21.70;94.90
4701;DHT22;8724;51.272;6.554;2022-09-02T06:55:41;21.70;94.90
4701;DHT22;8724;51.272;6.554;2022-09-02T06:58:12;21.70;95.00
4701;DHT22;8724;51.272;6.554;2022-09-02T07:00:41;21.70;95.00
4701;DHT22;8724;51.272;6.554;2022-09-02T07:03:11;21.70;95.10
4701;DHT22;8724;51.272;6.554;2022-09-02T07:06:05;21.70;95.10
4701;DHT22;8724;51.272;6.554;2022-09-02T07:08:38;21.80;95.20
4701;DHT22;8724;51.272;6.554;2022-09-02T07:11:15;21.80;95.20
4701;DHT22;8724;51.272;6.554;2022-09-02T07:13:45;21.70;95.20
4701;DHT22;8724;51.272;6.554;2022-09-02T07:16:16;21.80;95.30
4701;DHT22;8724;51.272;6.554;2022-09-02T07:18:54;21.80;95.30
4701;DHT22;8724;51.272;6.554;2022-09-02T07:21:23;21.90;95.40
4701;DHT22;8724;51.272;6.554;2022-09-02T07:23:52;21.90;95.40
4701;DHT22;8724;51.272;6.554;2022-09-02T07:26:21;21.90;95.30
4701;DHT22;8724;51.272;6.554;2022-09-02T07:28:53;21.90;95.40
4701;DHT22;8724;51.272;6.554;2022-09-02T07:31:23;22.00;95.50
4701;DHT22;8724;51.272;6.554;2022-09-02T07:33:54;22.00;95.50
4701;DHT22;8724;51.272;6.554;2022-09-02T07:36:26;22.00;95.50
4701;DHT22;8724;51.272;6.554;2022-09-02T07:38:56;22.00;95.60
4701;DHT22;8724;51.272;6.554;2022-09-02T07:41:25;22.00;95.60
4701;DHT22;8724;51.272;6.554;2022-09-02T07:43:55;22.00;95.60
4701;DHT22;8724;51.272;6.554;2022-09-02T07:46:27;22.10;95.70
4701;DHT22;8724;51.272;6.554;2022-09-02T07:48:57;22.10;95.70
4701;DHT22;8724;51.272;6.554;2022-09-02T07:51:26;22.10;95.70
4701;DHT22;8724;51.272;6.554;2022-09-02T07:53:58;22.10;95.70
4701;DHT22;8724;51.272;6.554;2022-09-02T07:56:27;22.20;95.70
4701;DHT22;8724;51.272;6.554;2022-09-02T07:58:57;22.20;95.70
4701;DHT22;8724;51.272;6.554;2022-09-02T08:01:25;22.20;95.70
4701;DHT22;8724;51.272;6.554;2022-09-02T08:03:55;22.20;95.70
4701;DHT22;8724;51.272;6.554;2022-09-02T08:06:31;22.20;95.60
4701;DHT22;8724;51.272;6.554;2022-09-02T08:09:02;22.20;95.60
4701;DHT22;8724;51.272;6.554;2022-09-02T08:11:31;22.20;95.60
4701;DHT22;8724;51.272;6.554;2022-09-02T08:14:04;22.20;95.70
4701;DHT22;8724;51.272;6.554;2022-09-02T08:16:32;22.20;95.70
4701;DHT22;8724;51.272;6.554;2022-09-02T08:19:01;22.20;95.70
4701;DHT22;8724;51.272;6.554;2022-09-02T08:21:29;22.30;95.80
4701;DHT22;8724;51.272;6.554;2022-09-02T08:23:57;22.20;95.70
4701;DHT22;8724;51.272;6.554;2022-09-02T08:26:26;22.20;95.80
4701;DHT22;8724;51.272;6.554;2022-09-02T08:28:55;22.20;95.80
4701;DHT22;8724;51.272;6.554;2022-09-02T08:31:25;22.30;95.90
4701;DHT22;8724;51.272;6.554;2022-09-02T08:33:53;22.30;95.90
4701;DHT22;8724;51.272;6.554;2022-09-02T08:36:21;22.30;95.90
4701;DHT22;8724;51.272;6.554;2022-09-02T08:38:50;22.30;95.90
4701;DHT22;8724;51.272;6.554;2022-09-02T08:41:21;22.40;96.00
4701;DHT22;8724;51.272;6.554;2022-09-02T08:43:51;22.30;95.90
4701;DHT22;8724;51.272;6.554;2022-09-02T08:46:21;22.40;96.00
4701;DHT22;8724;51.272;6.554;2022-09-02T08:48:56;22.30;95.90
4701;DHT22;8724;51.272;6.554;2022-09-02T08:51:30;22.40;96.00
4701;DHT22;8724;51.272;6.554;2022-09-02T08:54:06;22.40;96.00
4701;DHT22;8724;51.272;6.554;2022-09-02T08:56:35;22.40;96.00
4701;DHT22;8724;51.272;6.554;2022-09-02T08:59:03;22.40;96.10
4701;DHT22;8724;51.272;6.554;2022-09-02T09:01:40;22.40;96.10
4701;DHT22;8724;51.272;6.554;2022-09-02T09:04:16;22.40;96.20
4701;DHT22;8724;51.272;6.554;2022-09-02T09:06:53;22.40;96.20
4701;DHT22;8724;51.272;6.554;2022-09-02T09:09:29;22.50;96.20
4701;DHT22;8724;51.272;6.554;2022-09-02T09:12:09;22.50;96.30
4701;DHT22;8724;51.272;6.554;2022-09-02T09:14:45;22.50;95.90
4701;DHT22;8724;51.272;6.554;2022-09-02T09:17:22;22.50;95.80
4701;DHT22;8724;51.272;6.554;2022-09-02T09:19:57;22.50;95.70
4701;DHT22;8724;51.272;6.554;2022-09-02T09:22:31;22.50;95.70
4701;DHT22;8724;51.272;6.554;2022-09-02T09:25:06;22.50;95.60
4701;DHT22;8724;51.272;6.554;2022-09-02T09:27:37;22.50;95.60
4701;DHT22;8724;51.272;6.554;2022-09-02T09:30:07;22.50;95.50
4701;DHT22;8724;51.272;6.554;2022-09-02T09:32:44;22.50;95.40
4701;DHT22;8724;51.272;6.554;2022-09-02T09:35:16;22.60;95.50
4701;DHT22;8724;51.272;6.554;2022-09-02T09:37:45;22.50;95.50
4701;DHT22;8724;51.272;6.554;2022-09-02T09:40:24;22.50;95.50
4701;DHT22;8724;51.272;6.554;2022-09-02T09:42:55;22.60;95.50
4701;DHT22;8724;51.272;6.554;2022-09-02T09:45:29;22.60;95.90
4701;DHT22;8724;51.272;6.554;2022-09-02T09:48:19;22.60;95.70
4701;DHT22;8724;51.272;6.554;2022-09-02T09:51:10;22.60;95.70
4701;DHT22;8724;51.272;6.554;2022-09-02T09:53:39;22.70;95.60
4701;DHT22;8724;51.272;6.554;2022-09-02T09:56:23;22.70;95.70
4701;DHT22;8724;51.272;6.554;2022-09-02T09:58:52;22.70;95.70
4701;DHT22;8724;51.272;6.554;2022-09-02T10:01:23;22.70;95.80
4701;DHT22;8724;51.272;6.554;2022-09-02T10:03:55;22.70;95.80
4701;DHT22;8724;51.272;6.554;2022-09-02T10:06:36;22.70;95.80
4701;DHT22;8724;51.272;6.554;2022-09-02T10:09:24;22.80;95.80
4701;DHT22;8724;51.272;6.554;2022-09-02T10:11:57;22.80;95.80
4701;DHT22;8724;51.272;6.554;2022-09-02T10:14:27;22.80;95.80
4701;DHT22;8724;51.272;6.554;2022-09-02T10:17:09;22.80;95.80
4701;DHT22;8724;51.272;6.554;2022-09-02T10:19:46;22.80;95.80
4701;DHT22;8724;51.272;6.554;2022-09-02T10:22:47;22.90;95.80
4701;DHT22;8724;51.272;6.554;2022-09-02T10:25:31;22.90;95.80
4701;DHT22;8724;51.272;6.554;2022-09-02T10:28:22;22.90;95.70
4701;DHT22;8724;51.272;6.554;2022-09-02T10:31:01;22.90;95.60
4701;DHT22;8724;51.272;6.554;2022-09-02T10:33:42;23.00;95.40
4701;DHT22;8724;51.272;6.554;2022-09-02T10:36:16;23.00;95.70
4701;DHT22;8724;51.272;6.554;2022-09-02T10:38:52;23.00;95.30
4701;DHT22;8724;51.272;6.554;2022-09-02T10:41:38;23.00;94.90
4701;DHT22;8724;51.272;6.554;2022-09-02T10:44:25;23.00;94.70
4701;DHT22;8724;51.272;6.554;2022-09-02T10:46:59;23.00;94.70
4701;DHT22;8724;51.272;6.554;2022-09-02T10:52:36;23.10;94.80
4701;DHT22;8724;51.272;6.554;2022-09-02T10:55:14;23.10;94.50
4701;DHT22;8724;51.272;6.554;2022-09-02T10:57:46;23.10;94.30
4701;DHT22;8724;51.272;6.554;2022-09-02T11:00:18;23.10;94.20
4701;DHT22;8724;51.272;6.554;2022-09-02T11:02:48;23.20;93.70
4701;DHT22;8724;51.272;6.554;2022-09-02T11:05:21;23.20;93.30
4701;DHT22;8724;51.272;6.554;2022-09-02T11:07:54;23.30;93.30
4701;DHT22;8724;51.272;6.554;2022-09-02T11:10:25;23.30;92.90
4701;DHT22;8724;51.272;6.554;2022-09-02T11:12:59;23.30;92.00
4701;DHT22;8724;51.272;6.554;2022-09-02T11:15:38;23.40;91.20
4701;DHT22;8724;51.272;6.554;2022-09-02T11:18:15;23.40;90.60
4701;DHT22;8724;51.272;6.554;2022-09-02T11:20:48;23.40;90.60
4701;DHT22;8724;51.272;6.554;2022-09-02T11:23:24;23.50;90.90
4701;DHT22;8724;51.272;6.554;2022-09-02T11:26:02;23.50;91.10
4701;DHT22;8724;51.272;6.554;2022-09-02T11:28:39;23.60;91.40
4701;DHT22;8724;51.272;6.554;2022-09-02T11:31:14;23.60;91.50
4701;DHT22;8724;51.272;6.554;2022-09-02T11:33:50;23.60;91.50
4701;DHT22;8724;51.272;6.554;2022-09-02T11:36:20;23.60;91.60
4701;DHT22;8724;51.272;6.554;2022-09-02T11:38:54;23.70;91.70
4701;DHT22;8724;51.272;6.554;2022-09-02T11:41:32;23.60;91.60
4701;DHT22;8724;51.272;6.554;2022-09-02T11:47:16;23.70;91.70
4701;DHT22;8724;51.272;6.554;2022-09-02T11:50:03;23.70;91.40
4701;DHT22;8724;51.272;6.554;2022-09-02T11:52:50;23.80;91.60
4701;DHT22;8724;51.272;6.554;2022-09-02T11:55:30;23.80;91.00
4701;DHT22;8724;51.272;6.554;2022-09-02T11:58:01;23.90;91.10
4701;DHT22;8724;51.272;6.554;2022-09-02T12:00:31;23.90;91.20
4701;DHT22;8724;51.272;6.554;2022-09-02T12:03:19;23.90;91.30
4701;DHT22;8724;51.272;6.554;2022-09-02T12:06:10;23.90;91.30
4701;DHT22;8724;51.272;6.554;2022-09-02T12:09:02;23.90;91.30
4701;DHT22;8724;51.272;6.554;2022-09-02T12:11:42;23.90;91.20
4701;DHT22;8724;51.272;6.554;2022-09-02T12:26:25;24.00;90.70
4701;DHT22;8724;51.272;6.554;2022-09-02T12:29:10;24.00;90.60
4701;DHT22;8724;51.272;6.554;2022-09-02T12:31:40;24.10;90.70
4701;DHT22;8724;51.272;6.554;2022-09-02T12:34:54;24.10;90.80
4701;DHT22;8724;51.272;6.554;2022-09-02T12:37:54;24.10;90.80
4701;DHT22;8724;51.272;6.554;2022-09-02T12:40:27;24.10;90.90
4701;DHT22;8724;51.272;6.554;2022-09-02T12:43:01;24.10;90.80
4701;DHT22;8724;51.272;6.554;2022-09-02T12:45:32;24.20;90.30
4701;DHT22;8724;51.272;6.554;2022-09-02T12:48:07;24.30;90.10
4701;DHT22;8724;51.272;6.554;2022-09-02T12:50:55;24.20;90.30
4701;DHT22;8724;51.272;6.554;2022-09-02T12:53:32;24.30;90.40
4701;DHT22;8724;51.272;6.554;2022-09-02T12:56:04;24.30;90.30
4701;DHT22;8724;51.272;6.554;2022-09-02T12:58:44;24.30;90.30
4701;DHT22;8724;51.272;6.554;2022-09-02T13:01:15;24.30;90.30
4701;DHT22;8724;51.272;6.554;2022-09-02T13:04:01;24.40;90.40
4701;DHT22;8724;51.272;6.554;2022-09-02T13:06:39;24.40;90.40
4701;DHT22;8724;51.272;6.554;2022-09-02T13:09:38;24.50;90.50
4701;DHT22;8724;51.272;6.554;2022-09-02T13:12:40;24.50;90.50
4701;DHT22;8724;51.272;6.554;2022-09-02T13:15:40;24.50;90.40
4701;DHT22;8724;51.272;6.554;2022-09-02T13:18:34;24.50;89.90
4701;DHT22;8724;51.272;6.554;2022-09-02T13:21:15;24.60;90.00
4701;DHT22;8724;51.272;6.554;2022-09-02T13:24:10;24.60;90.00
4701;DHT22;8724;51.272;6.554;2022-09-02T13:27:08;24.60;90.00
4701;DHT22;8724;51.272;6.554;2022-09-02T13:32:36;24.80;90.00
4701;DHT22;8724;51.272;6.554;2022-09-02T13:35:07;24.80;90.00
4701;DHT22;8724;51.272;6.554;2022-09-02T13:37:53;24.80;90.00
4701;DHT22;8724;51.272;6.554;2022-09-02T13:40:31;24.80;89.90
4701;DHT22;8724;51.272;6.554;2022-09-02T13:43:02;24.90;89.90
4701;DHT22;8724;51.272;6.554;2022-09-02T13:45:32;24.90;89.50
4701;DHT22;8724;51.272;6.554;2022-09-02T13:48:05;24.90;89.10
4701;DHT22;8724;51.272;6.554;2022-09-02T13:50:35;24.90;87.40
4701;DHT22;8724;51.272;6.554;2022-09-02T13:53:05;25.00;86.70
4701;DHT22;8724;51.272;6.554;2022-09-02T13:55:57;25.10;87.20
4701;DHT22;8724;51.272;6.554;2022-09-02T13:58:33;25.10;87.50
4701;DHT22;8724;51.272;6.554;2022-09-02T14:01:20;25.10;87.60
4701;DHT22;8724;51.272;6.554;2022-09-02T14:03:51;25.10;87.70
4701;DHT22;8724;51.272;6.554;2022-09-02T14:06:22;25.10;87.60
4701;DHT22;8724;51.272;6.554;2022-09-02T14:08:54;25.10;87.30
4701;DHT22;8724;51.272;6.554;2022-09-02T14:11:26;25.10;87.00
4701;DHT22;8724;51.272;6.554;2022-09-02T14:13:56;25.10;87.10
4701;DHT22;8724;51.272;6.554;2022-09-02T14:16:30;25.10;87.10
4701;DHT22;8724;51.272;6.554;2022-09-02T14:19:04;25.20;86.70
4701;DHT22;8724;51.272;6.554;2022-09-02T14:21:33;25.20;86.40
4701;DHT22;8724;51.272;6.554;2022-09-02T14:24:02;25.20;86.10
4701;DHT22;8724;51.272;6.554;2022-09-02T14:26:36;25.00;85.80
4701;DHT22;8724;51.272;6.554;2022-09-02T14:29:06;25.30;86.10
4701;DHT22;8724;51.272;6.554;2022-09-02T14:31:35;25.30;86.30
4701;DHT22;8724;51.272;6.554;2022-09-02T14:34:31;25.30;86.30
4701;DHT22;8724;51.272;6.554;2022-09-02T14:37:11;25.30;86.20
4701;DHT22;8724;51.272;6.554;2022-09-02T14:39:51;25.40;86.20
4701;DHT22;8724;51.272;6.554;2022-09-02T14:42:20;25.50;86.20
4701;DHT22;8724;51.272;6.554;2022-09-02T14:44:49;25.50;86.10
4701;DHT22;8724;51.272;6.554;2022-09-02T14:47:17;25.50;86.00
4701;DHT22;8724;51.272;6.554;2022-09-02T14:49:52;25.60;86.00
4701;DHT22;8724;51.272;6.554;2022-09-02T14:52:24;25.60;85.70
4701;DHT22;8724;51.272;6.554;2022-09-02T14:54:54;25.60;85.50
4701;DHT22;8724;51.272;6.554;2022-09-02T14:57:26;25.70;85.40
4701;DHT22;8724;51.272;6.554;2022-09-02T15:00:00;25.70;85.30
4701;DHT22;8724;51.272;6.554;2022-09-02T15:02:31;25.70;85.30
4701;DHT22;8724;51.272;6.554;2022-09-02T15:05:02;25.80;85.40
4701;DHT22;8724;51.272;6.554;2022-09-02T15:07:31;25.90;85.60
4701;DHT22;8724;51.272;6.554;2022-09-02T15:09:59;25.90;85.30
4701;DHT22;8724;51.272;6.554;2022-09-02T15:12:32;25.90;85.20
4701;DHT22;8724;51.272;6.554;2022-09-02T15:15:00;25.90;85.00
4701;DHT22;8724;51.272;6.554;2022-09-02T15:17:28;26.00;85.00
4701;DHT22;8724;51.272;6.554;2022-09-02T15:19:57;26.00;84.80
4701;DHT22;8724;51.272;6.554;2022-09-02T15:22:26;26.00;84.70
4701;DHT22;8724;51.272;6.554;2022-09-02T15:24:55;26.00;84.60
4701;DHT22;8724;51.272;6.554;2022-09-02T15:27:24;26.10;84.60
4701;DHT22;8724;51.272;6.554;2022-09-02T15:29:53;26.10;84.50
4701;DHT22;8724;51.272;6.554;2022-09-02T15:32:21;26.20;84.40
4701;DHT22;8724;51.272;6.554;2022-09-02T15:34:53;26.30;84.20
4701;DHT22;8724;51.272;6.554;2022-09-02T15:37:21;26.30;84.00
4701;DHT22;8724;51.272;6.554;2022-09-02T15:39:50;26.40;84.00
4701;DHT22;8724;51.272;6.554;2022-09-02T15:42:18;26.40;83.60
4701;DHT22;8724;51.272;6.554;2022-09-02T15:44:46;26.50;83.60
4701;DHT22;8724;51.272;6.554;2022-09-02T15:47:16;26.50;83.90
4701;DHT22;8724;51.272;6.554;2022-09-02T15:49:44;26.60;82.80
4701;DHT22;8724;51.272;6.554;2022-09-02T15:52:12;26.60;83.40
4701;DHT22;8724;51.272;6.554;2022-09-02T15:54:40;26.70;82.30
4701;DHT22;8724;51.272;6.554;2022-09-02T15:57:09;26.80;82.60
4701;DHT22;8724;51.272;6.554;2022-09-02T15:59:37;26.80;83.00
4701;DHT22;8724;51.272;6.554;2022-09-02T16:02:05;26.80;83.10
4701;DHT22;8724;51.272;6.554;2022-09-02T16:04:35;26.90;83.20
4701;DHT22;8724;51.272;6.554;2022-09-02T16:07:03;26.90;83.10
4701;DHT22;8724;51.272;6.554;2022-09-02T16:09:32;26.90;83.10
4701;DHT22;8724;51.272;6.554;2022-09-02T16:12:00;27.00;83.30
4701;DHT22;8724;51.272;6.554;2022-09-02T16:14:28;27.00;83.30
4701;DHT22;8724;51.272;6.554;2022-09-02T16:16:56;27.00;83.20
4701;DHT22;8724;51.272;6.554;2022-09-02T16:19:26;27.00;83.30
4701;DHT22;8724;51.272;6.554;2022-09-02T16:21:57;27.10;83.40
4701;DHT22;8724;51.272;6.554;2022-09-02T16:24:26;27.10;83.30
4701;DHT22;8724;51.272;6.554;2022-09-02T16:26:54;27.10;83.10
4701;DHT22;8724;51.272;6.554;2022-09-02T16:29:22;27.10;83.00
4701;DHT22;8724;51.272;6.554;2022-09-02T16:31:54;27.10;83.00
4701;DHT22;8724;51.272;6.554;2022-09-02T16:34:43;27.20;82.80
4701;DHT22;8724;51.272;6.554;2022-09-02T16:37:13;27.20;82.60
4701;DHT22;8724;51.272;6.554;2022-09-02T16:39:43;27.10;82.70
4701;DHT22;8724;51.272;6.554;2022-09-02T16:42:11;27.20;82.80
4701;DHT22;8724;51.272;6.554;2022-09-02T16:44:39;27.20;83.50
4701;DHT22;8724;51.272;6.554;2022-09-02T16:47:08;27.10;82.70
4701;DHT22;8724;51.272;6.554;2022-09-02T16:49:39;27.10;82.90
4701;DHT22;8724;51.272;6.554;2022-09-02T16:52:08;27.10;82.60
4701;DHT22;8724;51.272;6.554;2022-09-02T16:54:37;27.10;82.70
4701;DHT22;8724;51.272;6.554;2022-09-02T16:57:07;27.10;82.80
4701;DHT22;8724;51.272;6.554;2022-09-02T16:59:35;27.10;83.60
4701;DHT22;8724;51.272;6.554;2022-09-02T17:02:04;27.10;82.80
4701;DHT22;8724;51.272;6.554;2022-09-02T17:04:33;27.10;82.70
4701;DHT22;8724;51.272;6.554;2022-09-02T17:07:01;27.10;82.60